DXE weather

Dexter Municipal Airport
Dexter, Missouri, United States

Public forecast

Using degrees Fahrenheit for public forecast. Weather courtesy of forecast.io.

METAR (pilot weather report)

Closest report is Poplar Bluff Municipal Airport, 18.5 nm (34.2 km) W. Retrieved 2019/09/21 17:53 UTC (43 minutes ago):

KPOF 211753Z AUTO 21012G18KT 10SM CLR 27/21 A3017 RMK AO2 SLP210 T02720206 10278 20211 58012

TAF (pilot weather forecast)

Closest forecast is Cape Girardeau Regional Airport, 32.2 nm (59.7 km) NNE. Retrieved 2019/09/21 18:22 UTC (14 minutes ago):

TAF KCGI 211720Z 2118/2218 20010KT P6SM SCT035 BKN200 FM212300 18008KT P6SM FEW040 FEW250 FM221500 21010G21KT P6SM FEW100